createdAt,value
2018-06-04T00:00:47.418Z,69.20
2018-06-04T00:03:16.047Z,56.20
2018-06-04T00:05:44.567Z,55.00
2018-06-04T00:08:13.296Z,54.80
2018-06-04T00:10:41.959Z,57.80
2018-06-04T00:13:10.667Z,67.10
2018-06-04T00:15:39.229Z,67.30
2018-06-04T00:18:07.887Z,69.10
2018-06-04T00:20:36.620Z,69.00
2018-06-04T00:23:05.169Z,69.60
2018-06-04T00:25:33.809Z,69.60
2018-06-04T00:28:02.351Z,64.60
2018-06-04T00:30:30.912Z,62.50
2018-06-04T00:32:59.510Z,63.30
2018-06-04T00:35:28.151Z,63.40
2018-06-04T00:37:56.914Z,62.40
2018-06-04T00:40:25.564Z,62.50
2018-06-04T00:42:54.191Z,62.30
2018-06-04T00:45:22.710Z,62.30
2018-06-04T00:47:51.386Z,63.90
2018-06-04T00:50:20.035Z,63.10
2018-06-04T00:52:48.693Z,69.40
2018-06-04T00:55:17.361Z,73.20
2018-06-04T00:57:46.015Z,72.60
2018-06-04T01:03:01.332Z,71.60
2018-06-04T01:05:30.002Z,73.00
2018-06-04T01:07:58.643Z,72.90
2018-06-04T01:10:27.231Z,71.30
2018-06-04T01:12:55.911Z,70.70
2018-06-04T01:15:24.474Z,71.70
2018-06-04T01:17:53.040Z,72.40
2018-06-04T01:20:21.770Z,76.70
2018-06-04T01:22:50.442Z,77.90
2018-06-04T01:25:19.037Z,78.70
2018-06-04T01:27:47.724Z,79.50
2018-06-04T01:30:16.666Z,79.00
2018-06-04T01:32:45.415Z,79.30
2018-06-04T01:35:14.159Z,79.70
2018-06-04T01:37:42.784Z,80.10
2018-06-04T01:40:11.504Z,80.70
2018-06-04T01:42:40.196Z,80.80
2018-06-04T01:45:08.728Z,77.40
2018-06-04T01:47:37.243Z,76.90
2018-06-04T01:50:05.752Z,76.90
2018-06-04T01:52:34.509Z,76.00
2018-06-04T01:55:03.170Z,75.10
2018-06-04T02:00:00.092Z,74.60
2018-06-04T02:02:28.631Z,75.10
2018-06-04T02:04:57.278Z,75.90
2018-06-04T02:07:25.882Z,76.20
2018-06-04T02:09:54.405Z,77.00
2018-06-04T02:12:22.987Z,76.30
2018-06-04T02:14:51.475Z,75.60
2018-06-04T02:17:20.099Z,75.90
2018-06-04T02:19:48.737Z,75.00
2018-06-04T02:22:17.695Z,75.10
2018-06-04T02:24:46.434Z,74.70
2018-06-04T02:27:15.268Z,74.80
2018-06-04T02:29:44.017Z,72.70
2018-06-04T02:32:12.686Z,71.90
2018-06-04T02:34:41.308Z,71.10
2018-06-04T02:37:09.963Z,70.70
2018-06-04T02:39:38.623Z,71.60
2018-06-04T02:42:07.188Z,72.60
2018-06-04T02:44:36.171Z,73.00
2018-06-04T02:47:04.929Z,73.50
2018-06-04T02:49:33.479Z,72.90
2018-06-04T02:52:02.104Z,71.40
2018-06-04T02:54:30.748Z,72.20
2018-06-04T02:56:59.438Z,72.20
2018-06-04T02:59:28.119Z,72.70
2018-06-04T03:01:56.720Z,73.90
2018-06-04T03:04:25.276Z,74.20
2018-06-04T03:06:53.878Z,74.50
2018-06-04T03:09:22.567Z,75.60
2018-06-04T03:11:51.240Z,76.70
2018-06-04T03:14:19.836Z,77.20
2018-06-04T03:16:48.403Z,77.40
2018-06-04T03:19:17.351Z,77.50
2018-06-04T03:21:46.150Z,77.70
2018-06-04T03:24:14.804Z,78.00
2018-06-04T03:26:43.399Z,77.80
2018-06-04T03:29:12.044Z,77.80
2018-06-04T03:31:40.625Z,77.70
2018-06-04T03:34:09.178Z,78.30
2018-06-04T03:36:38.126Z,78.70
2018-06-04T03:39:08.303Z,78.40
2018-06-04T03:41:36.897Z,78.30
2018-06-04T03:44:05.566Z,78.50
2018-06-04T03:46:34.252Z,78.90
2018-06-04T03:49:02.860Z,79.50
2018-06-04T03:51:31.561Z,79.90
2018-06-04T03:54:00.191Z,78.30
2018-06-04T03:56:28.749Z,78.20
2018-06-04T03:58:57.538Z,78.00
2018-06-04T04:03:54.547Z,76.90
2018-06-04T04:06:23.258Z,76.90
2018-06-04T04:08:51.884Z,76.80
2018-06-04T04:11:20.559Z,77.40
2018-06-04T04:13:49.216Z,78.00
2018-06-04T04:16:17.839Z,77.70
2018-06-04T04:18:47.098Z,77.30
2018-06-04T04:21:15.736Z,76.10
2018-06-04T04:23:44.360Z,74.90
2018-06-04T04:26:12.952Z,77.40
2018-06-04T04:28:41.546Z,77.40
2018-06-04T04:31:10.203Z,76.10
2018-06-04T04:33:38.921Z,75.00
2018-06-04T04:36:07.496Z,74.50
2018-06-04T04:38:36.145Z,74.80
2018-06-04T04:41:04.767Z,75.60
2018-06-04T04:43:33.291Z,74.40
2018-06-04T04:46:01.855Z,74.90
2018-06-04T04:48:30.372Z,77.00
2018-06-04T04:50:59.227Z,79.00
2018-06-04T04:53:27.881Z,78.50
2018-06-04T04:55:56.472Z,76.20
2018-06-04T04:58:25.255Z,73.70
2018-06-04T05:00:53.885Z,74.00
2018-06-04T05:03:22.574Z,74.90
2018-06-04T05:05:51.256Z,74.80
2018-06-04T05:08:19.796Z,75.00
2018-06-04T05:10:48.412Z,75.90
2018-06-04T05:13:17.084Z,75.80
2018-06-04T05:15:45.692Z,76.90
2018-06-04T05:18:14.445Z,77.40
2018-06-04T05:20:43.151Z,77.60
2018-06-04T05:23:11.784Z,78.10
2018-06-04T05:25:40.489Z,78.60
2018-06-04T05:28:09.096Z,78.30
2018-06-04T05:30:38.180Z,79.00
2018-06-04T05:33:06.839Z,78.80
2018-06-04T05:35:35.407Z,79.40
2018-06-04T05:38:04.135Z,79.20
2018-06-04T05:40:32.742Z,80.00
2018-06-04T05:43:01.376Z,80.50
2018-06-04T05:45:29.910Z,80.50
2018-06-04T05:47:58.648Z,80.10
2018-06-04T05:50:27.595Z,79.10
2018-06-04T05:52:56.307Z,79.10
2018-06-04T05:55:25.095Z,78.60
2018-06-04T05:57:53.698Z,78.60
2018-06-04T06:00:22.295Z,79.30
2018-06-04T06:02:51.005Z,79.60
2018-06-04T06:05:19.651Z,77.70
2018-06-04T06:07:48.201Z,77.40
2018-06-04T06:10:16.957Z,78.20
2018-06-04T06:12:45.683Z,78.30
2018-06-04T06:15:14.364Z,77.80
2018-06-04T06:17:43.742Z,78.40
2018-06-04T06:20:12.331Z,78.00
2018-06-04T06:22:40.885Z,76.60
2018-06-04T06:25:09.601Z,76.40
2018-06-04T06:27:38.206Z,75.80
2018-06-04T06:30:06.835Z,75.80
2018-06-04T06:32:36.031Z,75.80
2018-06-04T06:35:04.660Z,75.10
2018-06-04T06:37:33.535Z,74.80
2018-06-04T06:40:02.136Z,74.70
2018-06-04T06:42:30.795Z,73.70
2018-06-04T06:44:59.493Z,74.00
2018-06-04T06:47:28.173Z,72.90
2018-06-04T06:49:56.779Z,73.00
2018-06-04T06:52:25.661Z,73.20
2018-06-04T06:54:54.325Z,73.80
2018-06-04T06:57:23.070Z,73.00
2018-06-04T07:02:19.957Z,72.30
2018-06-04T07:04:48.778Z,72.10
2018-06-04T07:07:17.521Z,72.10
2018-06-04T07:09:46.407Z,73.00
2018-06-04T07:12:15.192Z,72.90
2018-06-04T07:17:13.461Z,72.30
2018-06-04T07:22:10.431Z,73.10
2018-06-04T07:24:39.161Z,72.80
2018-06-04T07:27:08.840Z,72.20
2018-06-04T07:29:37.680Z,72.90
2018-06-04T07:32:08.049Z,71.40
2018-06-04T07:34:37.404Z,70.40
2018-06-04T07:37:07.177Z,70.70
2018-06-04T07:39:35.860Z,71.70
2018-06-04T07:42:04.467Z,71.20
2018-06-04T07:44:33.082Z,72.30
2018-06-04T07:47:01.776Z,72.30
2018-06-04T07:49:30.384Z,73.90
2018-06-04T07:51:59.134Z,73.70
2018-06-04T07:54:28.981Z,74.00
2018-06-04T07:56:57.675Z,74.20
2018-06-04T07:59:26.462Z,74.40
2018-06-04T08:01:55.053Z,73.70
2018-06-04T08:04:23.662Z,73.70
2018-06-04T08:06:52.222Z,73.20
2018-06-04T08:09:21.184Z,73.10
2018-06-04T08:11:49.802Z,72.50
2018-06-04T08:14:18.347Z,72.70
2018-06-04T08:16:46.835Z,72.90
2018-06-04T08:19:15.376Z,73.10
2018-06-04T08:21:44.012Z,73.70
2018-06-04T08:24:12.596Z,73.50
2018-06-04T08:26:41.128Z,73.40
2018-06-04T08:29:09.830Z,72.60
2018-06-04T08:31:38.427Z,72.10
2018-06-04T08:34:06.980Z,70.20
2018-06-04T08:36:35.788Z,70.00
2018-06-04T08:39:06.429Z,69.60
2018-06-04T08:41:35.049Z,67.70
2018-06-04T08:44:03.930Z,67.50
2018-06-04T08:46:32.608Z,67.20
2018-06-04T08:49:01.235Z,66.40
2018-06-04T08:51:29.950Z,67.40
2018-06-04T08:53:58.570Z,67.70
2018-06-04T08:56:27.226Z,66.40
2018-06-04T08:58:55.899Z,65.80
2018-06-04T09:01:34.003Z,65.30
2018-06-04T09:04:02.629Z,67.00
2018-06-04T09:06:31.521Z,67.70
2018-06-04T09:09:00.175Z,66.60
2018-06-04T09:11:28.961Z,66.70
2018-06-04T09:13:57.620Z,64.90
2018-06-04T09:16:26.235Z,65.90
2018-06-04T09:18:55.032Z,63.10
2018-06-04T09:21:23.593Z,60.30
2018-06-04T09:23:52.170Z,62.80
2018-06-04T09:26:20.788Z,63.00
2018-06-04T09:28:49.354Z,64.00
2018-06-04T09:31:18.157Z,63.60
2018-06-04T09:33:46.936Z,65.10
2018-06-04T09:36:15.770Z,64.00
2018-06-04T09:38:44.607Z,62.60
2018-06-04T09:41:13.429Z,63.00
2018-06-04T09:46:10.633Z,63.80
2018-06-04T09:48:39.610Z,61.80
2018-06-04T09:51:09.259Z,61.50
2018-06-04T09:53:38.581Z,61.90
2018-06-04T09:56:07.448Z,62.30
2018-06-04T10:01:05.420Z,61.50
2018-06-04T10:03:34.408Z,60.60
2018-06-04T10:06:03.277Z,60.00
2018-06-04T10:08:33.083Z,61.00
2018-06-04T10:11:01.835Z,60.30
2018-06-04T10:13:30.774Z,60.00
2018-06-04T10:16:00.774Z,60.60
2018-06-04T10:18:29.672Z,61.00
2018-06-04T10:23:51.522Z,61.00
2018-06-04T10:26:20.351Z,61.80
2018-06-04T10:28:49.479Z,61.90
2018-06-04T10:31:18.227Z,61.80
2018-06-04T10:33:47.084Z,63.10
2018-06-04T10:36:15.918Z,63.20
2018-06-04T10:38:45.712Z,62.30
2018-06-04T10:41:14.547Z,62.90
2018-06-04T10:43:43.316Z,63.90
2018-06-04T10:46:14.988Z,62.50
2018-06-04T10:51:12.226Z,61.70
2018-06-04T10:53:40.968Z,61.90
2018-06-04T10:56:10.490Z,63.00
2018-06-04T10:58:41.340Z,63.60
2018-06-04T11:01:11.094Z,61.20
2018-06-04T11:03:39.963Z,61.00
2018-06-04T11:06:08.763Z,60.60
2018-06-04T11:08:37.561Z,60.50
2018-06-04T11:11:06.488Z,60.10
2018-06-04T11:13:35.383Z,60.50
2018-06-04T11:18:32.499Z,60.80
2018-06-04T11:21:01.006Z,60.60
2018-06-04T11:23:29.648Z,61.20
2018-06-04T11:25:58.202Z,61.20
2018-06-04T11:28:26.879Z,61.80
2018-06-04T11:33:48.295Z,62.40
2018-06-04T11:36:16.824Z,61.50
2018-06-04T11:38:46.430Z,61.10
2018-06-04T11:41:32.969Z,61.60
2018-06-04T11:44:01.509Z,61.00
2018-06-04T11:46:30.116Z,61.30
2018-06-04T11:48:58.692Z,60.90
2018-06-04T11:51:27.264Z,62.20
2018-06-04T11:53:56.055Z,62.10
2018-06-04T11:56:24.668Z,62.20
2018-06-04T11:58:53.225Z,60.70
2018-06-04T12:01:21.733Z,59.80
2018-06-04T12:03:50.329Z,59.70
2018-06-04T12:06:18.871Z,60.40
2018-06-04T12:08:47.697Z,60.00
2018-06-04T12:11:16.309Z,59.70
2018-06-04T12:13:45.028Z,59.20
2018-06-04T12:16:13.708Z,59.30
2018-06-04T12:18:42.364Z,59.70
2018-06-04T12:21:11.018Z,58.90
2018-06-04T12:23:39.754Z,58.90
2018-06-04T12:26:08.421Z,58.30
2018-06-04T12:28:37.021Z,59.00
2018-06-04T12:31:05.710Z,58.90
2018-06-04T12:33:34.399Z,58.80
2018-06-04T12:36:03.016Z,57.70
2018-06-04T12:38:31.674Z,57.50
2018-06-04T12:41:00.345Z,57.50
2018-06-04T12:43:29.003Z,56.80
2018-06-04T12:45:57.640Z,57.10
2018-06-04T12:48:26.267Z,58.40
2018-06-04T12:50:54.783Z,58.70
2018-06-04T12:53:23.363Z,58.80
2018-06-04T12:55:52.097Z,59.30
2018-06-04T12:58:20.791Z,59.20
2018-06-04T13:00:49.602Z,59.70
2018-06-04T13:03:18.152Z,60.10
2018-06-04T13:05:46.841Z,59.10
2018-06-04T13:08:15.443Z,58.70
2018-06-04T13:10:44.128Z,57.90
2018-06-04T13:13:12.681Z,57.40
2018-06-04T13:15:41.357Z,58.10
2018-06-04T13:18:09.923Z,56.50
2018-06-04T13:20:38.650Z,56.90
2018-06-04T13:23:07.249Z,57.60
2018-06-04T13:25:35.714Z,58.50
2018-06-04T13:28:04.502Z,59.40
2018-06-04T13:30:33.151Z,60.30
2018-06-04T13:33:01.737Z,60.90
2018-06-04T13:35:30.286Z,60.80
2018-06-04T13:37:59.105Z,61.90
2018-06-04T13:40:27.701Z,62.10
2018-06-04T13:42:56.224Z,62.80
2018-06-04T13:45:24.930Z,62.40
2018-06-04T13:47:53.844Z,61.90
2018-06-04T13:50:22.467Z,61.60
2018-06-04T13:52:51.131Z,61.50
2018-06-04T13:55:19.748Z,61.30
2018-06-04T13:57:48.349Z,61.10
2018-06-04T14:00:17.069Z,61.20
2018-06-04T14:02:45.674Z,61.80
2018-06-04T14:05:14.198Z,61.50
2018-06-04T14:07:42.834Z,61.50
2018-06-04T14:10:11.375Z,61.20
2018-06-04T14:12:40.273Z,60.00
2018-06-04T14:15:08.818Z,59.70
2018-06-04T14:17:37.418Z,60.00
2018-06-04T14:20:06.026Z,60.80
2018-06-04T14:22:34.543Z,61.60
2018-06-04T14:25:03.064Z,61.50
2018-06-04T14:27:31.747Z,59.80
2018-06-04T14:30:00.551Z,60.00
2018-06-04T14:32:29.142Z,59.30
2018-06-04T14:34:57.951Z,59.90
2018-06-04T14:37:26.572Z,59.70
2018-06-04T14:39:55.323Z,60.80
2018-06-04T14:42:23.922Z,59.20
2018-06-04T14:44:52.557Z,59.40
2018-06-04T14:47:21.200Z,58.90
2018-06-04T14:49:49.760Z,59.90
2018-06-04T14:52:18.420Z,57.40
2018-06-04T14:54:47.147Z,57.10
2018-06-04T14:57:15.742Z,57.10
2018-06-04T14:59:44.471Z,57.10
2018-06-04T15:02:13.287Z,57.90
2018-06-04T15:04:41.967Z,57.20
2018-06-04T15:07:10.628Z,56.90
2018-06-04T15:09:39.291Z,56.90
2018-06-04T15:12:08.024Z,55.90
2018-06-04T15:14:36.732Z,55.40
2018-06-04T15:17:05.418Z,54.80
2018-06-04T15:19:34.054Z,54.40
2018-06-04T15:22:02.764Z,53.80
2018-06-04T15:24:31.368Z,52.90
2018-06-04T15:26:59.984Z,52.50
2018-06-04T15:29:28.631Z,52.00
2018-06-04T15:31:57.252Z,51.50
2018-06-04T15:34:25.908Z,50.50
2018-06-04T15:36:54.630Z,50.70
2018-06-04T15:39:23.225Z,51.00
2018-06-04T15:41:52.031Z,51.10
2018-06-04T15:44:20.691Z,51.70
2018-06-04T15:46:49.545Z,50.60
2018-06-04T15:49:18.197Z,50.30
2018-06-04T15:51:47.169Z,51.00
2018-06-04T15:54:15.829Z,50.90
2018-06-04T15:56:44.538Z,49.90
2018-06-04T15:59:13.170Z,49.50
2018-06-04T16:01:42.173Z,49.50
2018-06-04T16:04:10.919Z,49.00
2018-06-04T16:06:39.617Z,49.40
2018-06-04T16:09:08.273Z,48.40
2018-06-04T16:11:36.926Z,47.80
2018-06-04T16:14:05.494Z,50.00
2018-06-04T16:16:34.293Z,50.30
2018-06-04T16:19:02.951Z,51.10
2018-06-04T16:21:31.652Z,50.40
2018-06-04T16:24:00.234Z,49.50
2018-06-04T16:26:28.754Z,50.50
2018-06-04T16:28:57.317Z,49.80
2018-06-04T16:31:25.912Z,49.30
2018-06-04T16:33:54.447Z,50.40
2018-06-04T16:36:23.060Z,50.90
2018-06-04T16:38:51.832Z,52.00
2018-06-04T16:41:21.674Z,53.30
2018-06-04T16:43:50.464Z,53.70
2018-06-04T16:46:19.170Z,54.50
2018-06-04T16:48:47.981Z,54.00
2018-06-04T16:51:16.978Z,54.20
2018-06-04T16:53:45.896Z,55.20
2018-06-04T16:56:14.754Z,55.80
2018-06-04T16:58:43.636Z,55.90
2018-06-04T17:01:12.476Z,56.30
2018-06-04T17:03:41.387Z,56.70
2018-06-04T17:06:10.155Z,57.40
2018-06-04T17:08:39.158Z,57.90
2018-06-04T17:11:07.962Z,58.00
2018-06-04T17:13:36.740Z,57.90
2018-06-04T17:16:05.701Z,58.00
2018-06-04T17:18:34.304Z,57.80
2018-06-04T17:21:02.932Z,58.50
2018-06-04T17:23:31.568Z,57.80
2018-06-04T17:28:28.682Z,56.80
2018-06-04T17:30:57.183Z,57.80
2018-06-04T17:33:25.666Z,58.10
2018-06-04T17:35:54.231Z,58.50
2018-06-04T17:38:22.759Z,59.20
2018-06-04T17:40:51.593Z,59.10
2018-06-04T17:43:20.168Z,58.10
2018-06-04T17:45:49.219Z,58.30
2018-06-04T17:48:17.843Z,58.80
2018-06-04T17:50:46.454Z,58.70
2018-06-04T17:53:15.063Z,57.70
2018-06-04T17:55:43.596Z,59.60
2018-06-04T17:58:12.359Z,60.00
2018-06-04T18:00:40.879Z,60.30
2018-06-04T18:03:09.504Z,60.30
2018-06-04T18:05:38.096Z,60.70
2018-06-04T18:08:06.782Z,60.40
2018-06-04T18:10:35.448Z,60.70
2018-06-04T18:13:04.069Z,58.30
2018-06-04T18:15:32.711Z,58.30
2018-06-04T18:18:01.252Z,58.50
2018-06-04T18:20:29.808Z,58.10
2018-06-04T18:22:58.395Z,57.30
2018-06-04T18:25:27.041Z,57.50
2018-06-04T18:27:55.522Z,58.80
2018-06-04T18:30:24.088Z,59.70
2018-06-04T18:32:52.618Z,59.40
2018-06-04T18:35:21.143Z,59.10
2018-06-04T18:37:49.831Z,59.10
2018-06-04T18:40:18.759Z,60.00
2018-06-04T18:42:47.382Z,60.70
2018-06-04T18:45:16.012Z,60.50
2018-06-04T18:47:44.590Z,60.60
2018-06-04T18:50:13.254Z,60.70
2018-06-04T18:52:41.918Z,61.30
2018-06-04T18:55:10.522Z,61.40
2018-06-04T18:57:39.155Z,61.50
2018-06-04T19:00:07.823Z,61.80
2018-06-04T19:02:36.485Z,61.60
2018-06-04T19:05:05.252Z,61.70
2018-06-04T19:07:33.866Z,61.70
2018-06-04T19:10:02.525Z,62.00
2018-06-04T19:12:31.243Z,62.70
2018-06-04T19:14:59.887Z,63.30
2018-06-04T19:17:28.516Z,63.20
2018-06-04T19:19:57.100Z,63.70
2018-06-04T19:22:25.704Z,64.10
2018-06-04T19:24:54.480Z,64.30
2018-06-04T19:27:23.066Z,65.10
2018-06-04T19:29:51.758Z,65.10
2018-06-04T19:32:20.332Z,65.30
2018-06-04T19:34:49.134Z,65.10
2018-06-04T19:37:17.823Z,65.10
2018-06-04T19:39:46.339Z,65.70
2018-06-04T19:42:15.214Z,65.70
2018-06-04T19:44:43.811Z,65.40
2018-06-04T19:47:12.469Z,64.90
2018-06-04T19:49:41.065Z,65.40
2018-06-04T19:52:09.634Z,65.80
2018-06-04T19:54:38.214Z,65.70
2018-06-04T19:57:07.002Z,65.90
2018-06-04T19:59:35.717Z,66.00
2018-06-04T20:02:04.326Z,66.10
2018-06-04T20:04:32.949Z,66.20
2018-06-04T20:07:01.603Z,65.90
2018-06-04T20:09:30.221Z,66.50
2018-06-04T20:11:58.950Z,66.60
2018-06-04T20:14:27.538Z,66.80
2018-06-04T20:16:56.252Z,67.30
2018-06-04T20:19:24.903Z,66.40
2018-06-04T20:21:53.589Z,66.60
2018-06-04T20:24:22.229Z,66.50
2018-06-04T20:26:50.840Z,66.50
2018-06-04T20:29:19.451Z,66.00
2018-06-04T20:31:48.144Z,65.70
2018-06-04T20:34:16.735Z,66.00
2018-06-04T20:39:13.702Z,67.60
2018-06-04T20:41:42.653Z,68.20
2018-06-04T20:44:11.548Z,69.20
2018-06-04T20:46:40.590Z,70.00
2018-06-04T20:49:09.832Z,71.00
2018-06-04T20:51:39.604Z,71.50
2018-06-04T20:54:08.550Z,72.00
2018-06-04T20:56:37.343Z,71.80
2018-06-04T20:59:06.150Z,72.00
2018-06-04T21:01:34.965Z,71.90
2018-06-04T21:04:03.768Z,71.60
2018-06-04T21:06:32.675Z,71.50
2018-06-04T21:11:30.449Z,72.00
2018-06-04T21:13:59.277Z,71.10
2018-06-04T21:16:28.147Z,71.30
2018-06-04T21:18:57.011Z,71.50
2018-06-04T21:23:55.087Z,71.50
2018-06-04T21:26:24.086Z,71.40
2018-06-04T21:28:52.821Z,71.50
2018-06-04T21:31:22.592Z,72.20
2018-06-04T21:33:51.398Z,73.80
2018-06-04T21:36:20.339Z,76.00
2018-06-04T21:38:49.193Z,76.10
2018-06-04T21:41:18.072Z,76.30
2018-06-04T21:43:46.847Z,75.90
2018-06-04T21:46:15.594Z,76.40
2018-06-04T21:48:47.298Z,76.90
2018-06-04T21:51:16.415Z,77.40
2018-06-04T21:53:45.155Z,77.80
2018-06-04T21:56:13.890Z,78.30
2018-06-04T21:58:42.732Z,78.70
2018-06-04T22:03:40.061Z,79.40
2018-06-04T22:06:08.902Z,79.40
2018-06-04T22:08:37.570Z,79.80
2018-06-04T22:11:06.438Z,81.10
2018-06-04T22:13:35.277Z,81.40
2018-06-04T22:16:04.092Z,82.30
2018-06-04T22:18:32.894Z,82.80
2018-06-04T22:21:01.671Z,82.60
2018-06-04T22:23:30.482Z,83.40
2018-06-04T22:25:59.377Z,86.10
2018-06-04T22:28:28.736Z,87.80
2018-06-04T22:30:57.635Z,89.80
2018-06-04T22:35:54.932Z,90.90
2018-06-04T22:38:23.676Z,91.10
2018-06-04T22:40:52.808Z,91.00
2018-06-04T22:43:22.031Z,91.70
2018-06-04T22:45:50.893Z,92.30
2018-06-04T22:48:19.586Z,92.40
2018-06-04T22:50:48.369Z,92.40
2018-06-04T22:53:17.100Z,92.10
2018-06-04T22:55:45.894Z,92.50
2018-06-04T22:58:14.767Z,92.10
2018-06-04T23:00:43.517Z,92.80
2018-06-04T23:03:12.255Z,92.90
2018-06-04T23:05:41.071Z,93.00
2018-06-04T23:08:10.435Z,93.60
2018-06-04T23:10:39.239Z,94.10
2018-06-04T23:15:36.428Z,95.00
2018-06-04T23:18:05.360Z,95.10
2018-06-04T23:20:34.096Z,95.10
2018-06-04T23:23:02.853Z,95.40
2018-06-04T23:25:31.608Z,95.40
2018-06-04T23:28:00.564Z,95.70
2018-06-04T23:30:29.539Z,95.80
2018-06-04T23:32:58.370Z,95.20
2018-06-04T23:37:55.530Z,93.80
2018-06-04T23:40:24.320Z,93.60
2018-06-04T23:42:53.107Z,93.70
2018-06-04T23:45:22.019Z,93.70
2018-06-04T23:50:19.172Z,92.90
2018-06-04T23:52:47.931Z,92.50
2018-06-04T23:55:16.814Z,92.40
2018-06-04T23:57:45.572Z,91.70
